sensor_id;sensor_type;location;lat;lon;timestamp;temperature;humidity
70867;HTU21D;58487;53.474;49.470;2023-04-07T00:00:22;4.86;73.20
70867;HTU21D;58487;53.474;49.470;2023-04-07T00:02:48;4.82;72.48
70867;HTU21D;58487;53.474;49.470;2023-04-07T00:05:14;4.82;72.61
70867;HTU21D;58487;53.474;49.470;2023-04-07T00:07:40;4.79;72.76
70867;HTU21D;58487;53.474;49.470;2023-04-07T00:10:07;4.73;72.39
70867;HTU21D;58487;53.474;49.470;2023-04-07T00:12:33;4.63;73.62
70867;HTU21D;58487;53.474;49.470;2023-04-07T00:14:59;4.60;73.13
70867;HTU21D;58487;53.474;49.470;2023-04-07T00:17:25;4.60;73.47
70867;HTU21D;58487;53.474;49.470;2023-04-07T00:19:51;4.50;73.24
70867;HTU21D;58487;53.474;49.470;2023-04-07T00:22:17;4.45;73.15
70867;HTU21D;58487;53.474;49.470;2023-04-07T00:24:43;4.44;73.42
70867;HTU21D;58487;53.474;49.470;2023-04-07T00:27:09;4.38;73.72
70867;HTU21D;58487;53.474;49.470;2023-04-07T00:29:35;4.42;73.01
70867;HTU21D;58487;53.474;49.470;2023-04-07T00:32:01;4.42;73.25
70867;HTU21D;58487;53.474;49.470;2023-04-07T00:34:27;4.38;73.58
70867;HTU21D;58487;53.474;49.470;2023-04-07T00:36:53;4.42;73.97
70867;HTU21D;58487;53.474;49.470;2023-04-07T00:39:20;4.38;74.62
70867;HTU21D;58487;53.474;49.470;2023-04-07T00:41:46;4.42;74.48
70867;HTU21D;58487;53.474;49.470;2023-04-07T00:44:13;4.53;74.00
70867;HTU21D;58487;53.474;49.470;2023-04-07T00:46:40;4.46;73.49
70867;HTU21D;58487;53.474;49.470;2023-04-07T00:49:06;4.50;73.46
70867;HTU21D;58487;53.474;49.470;2023-04-07T00:51:32;4.48;74.04
70867;HTU21D;58487;53.474;49.470;2023-04-07T00:53:59;4.45;73.48
70867;HTU21D;58487;53.474;49.470;2023-04-07T00:56:26;4.36;74.80
70867;HTU21D;58487;53.474;49.470;2023-04-07T00:58:52;4.36;74.58
70867;HTU21D;58487;53.474;49.470;2023-04-07T01:01:22;4.42;74.53
70867;HTU21D;58487;53.474;49.470;2023-04-07T01:03:57;4.31;74.78
70867;HTU21D;58487;53.474;49.470;2023-04-07T01:06:30;4.31;74.32
70867;HTU21D;58487;53.474;49.470;2023-04-07T01:14:21;4.16;75.01
70867;HTU21D;58487;53.474;49.470;2023-04-07T01:16:50;4.18;74.92
70867;HTU21D;58487;53.474;49.470;2023-04-07T01:22:14;4.16;73.75
70867;HTU21D;58487;53.474;49.470;2023-04-07T01:27:42;4.01;74.70
70867;HTU21D;58487;53.474;49.470;2023-04-07T01:30:12;4.02;74.56
70867;HTU21D;58487;53.474;49.470;2023-04-07T01:32:40;3.91;75.28
70867;HTU21D;58487;53.474;49.470;2023-04-07T01:35:11;3.84;75.01
70867;HTU21D;58487;53.474;49.470;2023-04-07T01:37:38;3.74;75.30
70867;HTU21D;58487;53.474;49.470;2023-04-07T01:40:06;3.76;75.46
70867;HTU21D;58487;53.474;49.470;2023-04-07T01:42:33;3.78;75.03
70867;HTU21D;58487;53.474;49.470;2023-04-07T01:45:01;3.70;75.22
70867;HTU21D;58487;53.474;49.470;2023-04-07T01:47:29;3.70;75.67
70867;HTU21D;58487;53.474;49.470;2023-04-07T01:49:57;3.70;75.63
70867;HTU21D;58487;53.474;49.470;2023-04-07T01:52:25;3.63;75.83
70867;HTU21D;58487;53.474;49.470;2023-04-07T01:54:53;3.63;75.59
70867;HTU21D;58487;53.474;49.470;2023-04-07T01:57:19;3.55;76.15
70867;HTU21D;58487;53.474;49.470;2023-04-07T01:59:46;3.47;76.84
70867;HTU21D;58487;53.474;49.470;2023-04-07T02:02:11;3.38;76.88
70867;HTU21D;58487;53.474;49.470;2023-04-07T02:04:56;3.38;76.73
70867;HTU21D;58487;53.474;49.470;2023-04-07T02:07:30;3.32;75.43
70867;HTU21D;58487;53.474;49.470;2023-04-07T02:09:59;3.27;75.71
70867;HTU21D;58487;53.474;49.470;2023-04-07T02:12:29;3.28;75.58
70867;HTU21D;58487;53.474;49.470;2023-04-07T02:14:56;3.28;76.23
70867;HTU21D;58487;53.474;49.470;2023-04-07T02:17:24;3.25;76.47
70867;HTU21D;58487;53.474;49.470;2023-04-07T02:19:52;3.19;75.92
70867;HTU21D;58487;53.474;49.470;2023-04-07T02:22:18;3.25;75.98
70867;HTU21D;58487;53.474;49.470;2023-04-07T02:24:45;3.28;75.24
70867;HTU21D;58487;53.474;49.470;2023-04-07T02:27:11;3.17;75.23
70867;HTU21D;58487;53.474;49.470;2023-04-07T02:29:37;3.12;75.72
70867;HTU21D;58487;53.474;49.470;2023-04-07T02:32:03;3.17;76.36
70867;HTU21D;58487;53.474;49.470;2023-04-07T02:34:30;3.13;76.30
70867;HTU21D;58487;53.474;49.470;2023-04-07T02:36:56;3.06;75.76
70867;HTU21D;58487;53.474;49.470;2023-04-07T02:39:22;3.06;76.33
70867;HTU21D;58487;53.474;49.470;2023-04-07T02:41:48;3.00;76.27
70867;HTU21D;58487;53.474;49.470;2023-04-07T02:44:14;3.01;76.50
70867;HTU21D;58487;53.474;49.470;2023-04-07T02:46:40;2.97;76.18
70867;HTU21D;58487;53.474;49.470;2023-04-07T02:49:06;2.88;77.02
70867;HTU21D;58487;53.474;49.470;2023-04-07T02:51:32;2.83;75.94
70867;HTU21D;58487;53.474;49.470;2023-04-07T02:53:58;2.85;75.70
70867;HTU21D;58487;53.474;49.470;2023-04-07T02:56:24;2.79;76.57
70867;HTU21D;58487;53.474;49.470;2023-04-07T02:58:50;2.72;77.31
70867;HTU21D;58487;53.474;49.470;2023-04-07T03:01:16;2.72;77.19
70867;HTU21D;58487;53.474;49.470;2023-04-07T03:03:42;2.69;76.92
70867;HTU21D;58487;53.474;49.470;2023-04-07T03:06:09;2.67;76.98
70867;HTU21D;58487;53.474;49.470;2023-04-07T03:08:35;2.69;77.15
70867;HTU21D;58487;53.474;49.470;2023-04-07T03:11:01;2.74;76.55
70867;HTU21D;58487;53.474;49.470;2023-04-07T03:13:27;2.66;77.13
70867;HTU21D;58487;53.474;49.470;2023-04-07T03:15:56;2.68;76.66
70867;HTU21D;58487;53.474;49.470;2023-04-07T03:18:22;2.78;76.31
70867;HTU21D;58487;53.474;49.470;2023-04-07T03:20:48;2.83;76.26
70867;HTU21D;58487;53.474;49.470;2023-04-07T03:23:14;2.91;76.69
70867;HTU21D;58487;53.474;49.470;2023-04-07T03:25:41;2.98;75.96
70867;HTU21D;58487;53.474;49.470;2023-04-07T03:28:07;2.93;75.51
70867;HTU21D;58487;53.474;49.470;2023-04-07T03:30:33;2.98;75.83
70867;HTU21D;58487;53.474;49.470;2023-04-07T03:32:59;3.06;75.31
70867;HTU21D;58487;53.474;49.470;2023-04-07T03:35:25;3.16;74.83
70867;HTU21D;58487;53.474;49.470;2023-04-07T03:37:51;3.16;75.59
70867;HTU21D;58487;53.474;49.470;2023-04-07T03:40:17;3.16;75.39
70867;HTU21D;58487;53.474;49.470;2023-04-07T03:42:44;3.12;74.74
70867;HTU21D;58487;53.474;49.470;2023-04-07T03:45:11;3.12;75.63
70867;HTU21D;58487;53.474;49.470;2023-04-07T03:47:37;3.06;75.76
70867;HTU21D;58487;53.474;49.470;2023-04-07T03:50:03;3.13;75.31
70867;HTU21D;58487;53.474;49.470;2023-04-07T03:52:29;3.14;76.57
70867;HTU21D;58487;53.474;49.470;2023-04-07T03:54:55;3.26;74.80
70867;HTU21D;58487;53.474;49.470;2023-04-07T03:57:21;3.29;74.46
70867;HTU21D;58487;53.474;49.470;2023-04-07T03:59:47;3.36;74.60
70867;HTU21D;58487;53.474;49.470;2023-04-07T04:02:16;3.53;74.70
70867;HTU21D;58487;53.474;49.470;2023-04-07T04:04:42;3.54;73.98
70867;HTU21D;58487;53.474;49.470;2023-04-07T04:07:08;3.63;74.50
70867;HTU21D;58487;53.474;49.470;2023-04-07T04:09:34;3.64;74.58
70867;HTU21D;58487;53.474;49.470;2023-04-07T04:12:00;3.62;74.10
70867;HTU21D;58487;53.474;49.470;2023-04-07T04:14:27;3.71;74.40
70867;HTU21D;58487;53.474;49.470;2023-04-07T04:16:53;3.77;74.15
70867;HTU21D;58487;53.474;49.470;2023-04-07T04:19:19;3.80;74.72
70867;HTU21D;58487;53.474;49.470;2023-04-07T04:21:46;3.87;74.64
70867;HTU21D;58487;53.474;49.470;2023-04-07T04:24:12;3.92;74.79
70867;HTU21D;58487;53.474;49.470;2023-04-07T04:26:38;3.90;74.80
70867;HTU21D;58487;53.474;49.470;2023-04-07T04:29:04;3.91;74.52
70867;HTU21D;58487;53.474;49.470;2023-04-07T04:31:31;4.04;74.96
70867;HTU21D;58487;53.474;49.470;2023-04-07T04:33:57;4.16;73.38
70867;HTU21D;58487;53.474;49.470;2023-04-07T04:36:23;4.21;73.71
70867;HTU21D;58487;53.474;49.470;2023-04-07T04:38:49;4.32;74.15
70867;HTU21D;58487;53.474;49.470;2023-04-07T04:41:15;4.38;73.27
70867;HTU21D;58487;53.474;49.470;2023-04-07T04:43:41;4.46;73.99
70867;HTU21D;58487;53.474;49.470;2023-04-07T04:46:07;4.48;73.64
70867;HTU21D;58487;53.474;49.470;2023-04-07T04:48:33;4.49;74.51
70867;HTU21D;58487;53.474;49.470;2023-04-07T04:50:59;4.50;73.85
70867;HTU21D;58487;53.474;49.470;2023-04-07T04:53:25;4.59;73.39
70867;HTU21D;58487;53.474;49.470;2023-04-07T04:55:51;4.64;72.87
70867;HTU21D;58487;53.474;49.470;2023-04-07T04:58:18;4.71;72.83
70867;HTU21D;58487;53.474;49.470;2023-04-07T05:00:45;4.80;72.58
70867;HTU21D;58487;53.474;49.470;2023-04-07T05:03:11;4.86;72.09
70867;HTU21D;58487;53.474;49.470;2023-04-07T05:05:37;4.95;71.98
70867;HTU21D;58487;53.474;49.470;2023-04-07T05:08:03;5.10;72.34
70867;HTU21D;58487;53.474;49.470;2023-04-07T05:10:29;5.23;71.64
70867;HTU21D;58487;53.474;49.470;2023-04-07T05:12:55;5.30;71.22
70867;HTU21D;58487;53.474;49.470;2023-04-07T05:15:22;5.35;71.25
70867;HTU21D;58487;53.474;49.470;2023-04-07T05:17:48;5.42;71.45
70867;HTU21D;58487;53.474;49.470;2023-04-07T05:20:15;5.34;72.74
70867;HTU21D;58487;53.474;49.470;2023-04-07T05:22:41;5.46;71.42
70867;HTU21D;58487;53.474;49.470;2023-04-07T05:25:08;5.53;70.85
70867;HTU21D;58487;53.474;49.470;2023-04-07T05:27:34;5.52;71.13
70867;HTU21D;58487;53.474;49.470;2023-04-07T05:30:00;5.39;71.20
70867;HTU21D;58487;53.474;49.470;2023-04-07T05:32:27;5.32;71.57
70867;HTU21D;58487;53.474;49.470;2023-04-07T05:34:53;5.23;72.70
70867;HTU21D;58487;53.474;49.470;2023-04-07T05:37:19;5.33;72.93
70867;HTU21D;58487;53.474;49.470;2023-04-07T05:39:45;5.41;71.64
70867;HTU21D;58487;53.474;49.470;2023-04-07T05:42:11;5.50;70.86
70867;HTU21D;58487;53.474;49.470;2023-04-07T05:44:37;5.61;71.03
70867;HTU21D;58487;53.474;49.470;2023-04-07T05:47:03;5.68;71.51
70867;HTU21D;58487;53.474;49.470;2023-04-07T05:49:36;5.85;71.45
70867;HTU21D;58487;53.474;49.470;2023-04-07T05:52:03;5.96;71.00
70867;HTU21D;58487;53.474;49.470;2023-04-07T05:54:30;6.06;71.16
70867;HTU21D;58487;53.474;49.470;2023-04-07T05:56:56;5.83;71.52
70867;HTU21D;58487;53.474;49.470;2023-04-07T05:59:22;5.83;71.76
70867;HTU21D;58487;53.474;49.470;2023-04-07T06:01:48;5.87;71.81
70867;HTU21D;58487;53.474;49.470;2023-04-07T06:04:15;6.02;70.96
70867;HTU21D;58487;53.474;49.470;2023-04-07T06:06:41;6.12;71.71
70867;HTU21D;58487;53.474;49.470;2023-04-07T06:09:07;6.29;71.75
70867;HTU21D;58487;53.474;49.470;2023-04-07T06:11:33;6.22;71.78
70867;HTU21D;58487;53.474;49.470;2023-04-07T06:13:59;6.14;71.55
70867;HTU21D;58487;53.474;49.470;2023-04-07T06:16:25;6.16;71.67
70867;HTU21D;58487;53.474;49.470;2023-04-07T06:18:51;6.16;71.13
70867;HTU21D;58487;53.474;49.470;2023-04-07T06:21:17;6.33;71.32
70867;HTU21D;58487;53.474;49.470;2023-04-07T06:23:43;6.37;70.78
70867;HTU21D;58487;53.474;49.470;2023-04-07T06:26:10;6.43;70.77
70867;HTU21D;58487;53.474;49.470;2023-04-07T06:28:37;6.40;70.62
70867;HTU21D;58487;53.474;49.470;2023-04-07T06:31:03;6.53;70.70
70867;HTU21D;58487;53.474;49.470;2023-04-07T06:33:29;6.53;71.82
70867;HTU21D;58487;53.474;49.470;2023-04-07T06:35:55;6.55;71.99
70867;HTU21D;58487;53.474;49.470;2023-04-07T06:38:22;6.56;71.27
70867;HTU21D;58487;53.474;49.470;2023-04-07T06:40:48;6.59;71.35
70867;HTU21D;58487;53.474;49.470;2023-04-07T06:43:17;6.76;70.93
70867;HTU21D;58487;53.474;49.470;2023-04-07T06:45:43;6.72;70.61
70867;HTU21D;58487;53.474;49.470;2023-04-07T06:48:09;6.75;71.25
70867;HTU21D;58487;53.474;49.470;2023-04-07T06:50:36;6.74;71.15
70867;HTU21D;58487;53.474;49.470;2023-04-07T06:53:03;6.88;71.23
70867;HTU21D;58487;53.474;49.470;2023-04-07T06:55:30;6.86;70.39
70867;HTU21D;58487;53.474;49.470;2023-04-07T06:57:56;6.80;70.81
70867;HTU21D;58487;53.474;49.470;2023-04-07T07:00:22;6.74;71.25
70867;HTU21D;58487;53.474;49.470;2023-04-07T07:02:49;6.95;72.10
70867;HTU21D;58487;53.474;49.470;2023-04-07T07:05:15;7.08;70.29
70867;HTU21D;58487;53.474;49.470;2023-04-07T07:07:41;7.20;69.01
70867;HTU21D;58487;53.474;49.470;2023-04-07T07:10:10;7.09;69.20
70867;HTU21D;58487;53.474;49.470;2023-04-07T07:12:36;7.14;68.90
70867;HTU21D;58487;53.474;49.470;2023-04-07T07:15:02;7.32;69.56
70867;HTU21D;58487;53.474;49.470;2023-04-07T07:17:29;7.43;68.50
70867;HTU21D;58487;53.474;49.470;2023-04-07T07:19:55;7.41;68.86
70867;HTU21D;58487;53.474;49.470;2023-04-07T07:22:21;7.52;69.26
70867;HTU21D;58487;53.474;49.470;2023-04-07T07:24:47;7.50;69.40
70867;HTU21D;58487;53.474;49.470;2023-04-07T07:27:13;7.54;69.41
70867;HTU21D;58487;53.474;49.470;2023-04-07T07:29:39;7.62;69.52
70867;HTU21D;58487;53.474;49.470;2023-04-07T07:32:05;7.70;69.06
70867;HTU21D;58487;53.474;49.470;2023-04-07T07:34:31;7.88;69.09
70867;HTU21D;58487;53.474;49.470;2023-04-07T07:36:57;7.88;68.91
70867;HTU21D;58487;53.474;49.470;2023-04-07T07:39:25;8.06;68.59
70867;HTU21D;58487;53.474;49.470;2023-04-07T07:41:51;7.97;68.72
70867;HTU21D;58487;53.474;49.470;2023-04-07T07:44:17;8.11;68.73
70867;HTU21D;58487;53.474;49.470;2023-04-07T07:46:48;8.23;68.30
70867;HTU21D;58487;53.474;49.470;2023-04-07T07:49:14;8.24;68.35
70867;HTU21D;58487;53.474;49.470;2023-04-07T07:51:40;8.34;67.79
70867;HTU21D;58487;53.474;49.470;2023-04-07T07:54:06;8.31;68.28
70867;HTU21D;58487;53.474;49.470;2023-04-07T07:56:32;8.46;67.68
70867;HTU21D;58487;53.474;49.470;2023-04-07T07:58:58;8.52;67.72
70867;HTU21D;58487;53.474;49.470;2023-04-07T08:01:24;8.57;67.10
70867;HTU21D;58487;53.474;49.470;2023-04-07T08:03:54;8.60;67.47
70867;HTU21D;58487;53.474;49.470;2023-04-07T08:06:25;8.85;66.75
70867;HTU21D;58487;53.474;49.470;2023-04-07T08:08:54;8.91;67.23
70867;HTU21D;58487;53.474;49.470;2023-04-07T08:11:21;8.87;67.55
70867;HTU21D;58487;53.474;49.470;2023-04-07T08:13:47;8.96;67.58
70867;HTU21D;58487;53.474;49.470;2023-04-07T08:16:14;8.91;67.49
70867;HTU21D;58487;53.474;49.470;2023-04-07T08:18:40;8.95;67.52
70867;HTU21D;58487;53.474;49.470;2023-04-07T08:21:06;9.18;66.70
70867;HTU21D;58487;53.474;49.470;2023-04-07T08:23:32;9.31;67.00
70867;HTU21D;58487;53.474;49.470;2023-04-07T08:25:58;9.24;66.69
70867;HTU21D;58487;53.474;49.470;2023-04-07T08:28:25;9.21;67.46
70867;HTU21D;58487;53.474;49.470;2023-04-07T08:30:51;9.37;66.48
70867;HTU21D;58487;53.474;49.470;2023-04-07T08:33:17;9.54;66.09
70867;HTU21D;58487;53.474;49.470;2023-04-07T08:35:43;9.64;65.77
70867;HTU21D;58487;53.474;49.470;2023-04-07T08:38:10;9.56;66.71
70867;HTU21D;58487;53.474;49.470;2023-04-07T08:40:36;9.70;66.64
70867;HTU21D;58487;53.474;49.470;2023-04-07T08:43:08;9.70;65.63
70867;HTU21D;58487;53.474;49.470;2023-04-07T08:45:38;9.78;66.33
70867;HTU21D;58487;53.474;49.470;2023-04-07T08:48:15;9.91;65.50
70867;HTU21D;58487;53.474;49.470;2023-04-07T08:50:45;10.01;66.30
70867;HTU21D;58487;53.474;49.470;2023-04-07T08:53:17;10.03;66.05
70867;HTU21D;58487;53.474;49.470;2023-04-07T08:55:44;10.25;66.18
70867;HTU21D;58487;53.474;49.470;2023-04-07T08:58:10;10.31;65.91
70867;HTU21D;58487;53.474;49.470;2023-04-07T09:00:43;10.56;65.85
70867;HTU21D;58487;53.474;49.470;2023-04-07T09:03:11;10.63;65.65
70867;HTU21D;58487;53.474;49.470;2023-04-07T09:05:38;10.60;65.38
70867;HTU21D;58487;53.474;49.470;2023-04-07T09:08:04;10.52;64.78
70867;HTU21D;58487;53.474;49.470;2023-04-07T09:10:30;10.70;65.14
70867;HTU21D;58487;53.474;49.470;2023-04-07T09:12:58;10.75;64.34
70867;HTU21D;58487;53.474;49.470;2023-04-07T09:15:28;11.12;64.82
70867;HTU21D;58487;53.474;49.470;2023-04-07T09:17:56;11.13;63.86
70867;HTU21D;58487;53.474;49.470;2023-04-07T09:20:24;11.01;64.24
70867;HTU21D;58487;53.474;49.470;2023-04-07T09:22:51;11.11;63.84
70867;HTU21D;58487;53.474;49.470;2023-04-07T09:25:22;11.52;63.35
70867;HTU21D;58487;53.474;49.470;2023-04-07T09:28:00;11.73;63.23
70867;HTU21D;58487;53.474;49.470;2023-04-07T09:30:28;11.55;63.98
70867;HTU21D;58487;53.474;49.470;2023-04-07T09:32:55;11.44;63.75
70867;HTU21D;58487;53.474;49.470;2023-04-07T09:35:22;11.93;63.53
70867;HTU21D;58487;53.474;49.470;2023-04-07T09:38:08;12.42;61.39
70867;HTU21D;58487;53.474;49.470;2023-04-07T09:40:35;12.65;61.34
70867;HTU21D;58487;53.474;49.470;2023-04-07T09:43:03;12.87;61.24
70867;HTU21D;58487;53.474;49.470;2023-04-07T09:45:30;13.19;62.18
70867;HTU21D;58487;53.474;49.470;2023-04-07T09:48:06;13.29;60.77
70867;HTU21D;58487;53.474;49.470;2023-04-07T09:50:35;13.54;60.64
70867;HTU21D;58487;53.474;49.470;2023-04-07T09:53:02;13.58;58.98
70867;HTU21D;58487;53.474;49.470;2023-04-07T09:55:29;13.59;60.84
70867;HTU21D;58487;53.474;49.470;2023-04-07T09:57:56;13.18;60.05
70867;HTU21D;58487;53.474;49.470;2023-04-07T10:00:23;13.09;61.28
70867;HTU21D;58487;53.474;49.470;2023-04-07T10:02:49;13.08;60.38
70867;HTU21D;58487;53.474;49.470;2023-04-07T10:05:18;13.38;60.33
70867;HTU21D;58487;53.474;49.470;2023-04-07T10:07:48;13.55;60.02
70867;HTU21D;58487;53.474;49.470;2023-04-07T10:10:14;13.32;59.80
70867;HTU21D;58487;53.474;49.470;2023-04-07T10:12:41;13.26;59.29
70867;HTU21D;58487;53.474;49.470;2023-04-07T10:15:11;13.62;58.47
70867;HTU21D;58487;53.474;49.470;2023-04-07T10:17:39;13.30;59.77
70867;HTU21D;58487;53.474;49.470;2023-04-07T10:20:06;13.01;59.20
70867;HTU21D;58487;53.474;49.470;2023-04-07T10:22:35;12.95;59.67
70867;HTU21D;58487;53.474;49.470;2023-04-07T10:25:07;13.07;59.60
70867;HTU21D;58487;53.474;49.470;2023-04-07T10:27:41;13.62;58.55
70867;HTU21D;58487;53.474;49.470;2023-04-07T10:30:19;14.37;57.58
70867;HTU21D;58487;53.474;49.470;2023-04-07T10:32:48;14.09;57.16
70867;HTU21D;58487;53.474;49.470;2023-04-07T10:35:15;13.55;58.84
70867;HTU21D;58487;53.474;49.470;2023-04-07T10:38:08;13.26;58.69
70867;HTU21D;58487;53.474;49.470;2023-04-07T10:40:36;13.08;59.30
70867;HTU21D;58487;53.474;49.470;2023-04-07T10:43:03;12.96;60.51
70867;HTU21D;58487;53.474;49.470;2023-04-07T10:48:12;12.63;60.06
70867;HTU21D;58487;53.474;49.470;2023-04-07T10:50:38;12.58;59.83
70867;HTU21D;58487;53.474;49.470;2023-04-07T10:53:12;13.15;59.01
70867;HTU21D;58487;53.474;49.470;2023-04-07T10:58:27;13.24;58.93
70867;HTU21D;58487;53.474;49.470;2023-04-07T11:03:23;13.89;58.12
70867;HTU21D;58487;53.474;49.470;2023-04-07T11:05:49;14.33;57.95
70867;HTU21D;58487;53.474;49.470;2023-04-07T11:08:31;14.74;56.07
70867;HTU21D;58487;53.474;49.470;2023-04-07T11:10:57;15.26;55.40
70867;HTU21D;58487;53.474;49.470;2023-04-07T11:13:23;14.97;56.26
70867;HTU21D;58487;53.474;49.470;2023-04-07T11:15:50;14.55;56.90
70867;HTU21D;58487;53.474;49.470;2023-04-07T11:18:18;13.96;58.19
70867;HTU21D;58487;53.474;49.470;2023-04-07T11:20:55;13.65;57.38
70867;HTU21D;58487;53.474;49.470;2023-04-07T11:23:24;14.07;57.17
70867;HTU21D;58487;53.474;49.470;2023-04-07T11:25:52;14.56;56.96
70867;HTU21D;58487;53.474;49.470;2023-04-07T11:28:18;14.84;56.23
70867;HTU21D;58487;53.474;49.470;2023-04-07T11:30:49;15.10;55.49
70867;HTU21D;58487;53.474;49.470;2023-04-07T11:33:24;14.57;57.08
70867;HTU21D;58487;53.474;49.470;2023-04-07T11:38:17;14.00;57.92
70867;HTU21D;58487;53.474;49.470;2023-04-07T11:40:44;14.03;58.35
70867;HTU21D;58487;53.474;49.470;2023-04-07T11:43:19;13.81;57.67
70867;HTU21D;58487;53.474;49.470;2023-04-07T11:46:16;13.58;58.06
70867;HTU21D;58487;53.474;49.470;2023-04-07T11:48:43;13.39;59.18
70867;HTU21D;58487;53.474;49.470;2023-04-07T11:51:21;13.23;59.44
70867;HTU21D;58487;53.474;49.470;2023-04-07T11:53:54;13.02;59.57
70867;HTU21D;58487;53.474;49.470;2023-04-07T11:56:21;12.82;60.39
70867;HTU21D;58487;53.474;49.470;2023-04-07T11:58:49;12.73;60.57
70867;HTU21D;58487;53.474;49.470;2023-04-07T12:01:15;12.70;60.75
70867;HTU21D;58487;53.474;49.470;2023-04-07T12:04:01;12.95;60.53
70867;HTU21D;58487;53.474;49.470;2023-04-07T12:06:33;13.91;58.00
70867;HTU21D;58487;53.474;49.470;2023-04-07T12:09:01;14.41;58.34
70867;HTU21D;58487;53.474;49.470;2023-04-07T12:11:27;14.93;57.45
70867;HTU21D;58487;53.474;49.470;2023-04-07T12:13:54;15.33;56.04
70867;HTU21D;58487;53.474;49.470;2023-04-07T12:16:21;15.66;56.51
70867;HTU21D;58487;53.474;49.470;2023-04-07T12:18:48;15.18;56.92
70867;HTU21D;58487;53.474;49.470;2023-04-07T12:21:16;14.55;57.80
70867;HTU21D;58487;53.474;49.470;2023-04-07T12:23:43;14.18;58.62
70867;HTU21D;58487;53.474;49.470;2023-04-07T12:26:10;13.82;58.53
70867;HTU21D;58487;53.474;49.470;2023-04-07T12:28:39;13.61;58.78
70867;HTU21D;58487;53.474;49.470;2023-04-07T12:31:05;13.49;59.62
70867;HTU21D;58487;53.474;49.470;2023-04-07T12:33:31;13.32;60.02
70867;HTU21D;58487;53.474;49.470;2023-04-07T12:35:57;13.27;58.54
70867;HTU21D;58487;53.474;49.470;2023-04-07T12:38:24;13.92;58.09
70867;HTU21D;58487;53.474;49.470;2023-04-07T12:40:50;14.85;57.40
70867;HTU21D;58487;53.474;49.470;2023-04-07T12:43:16;15.63;55.16
70867;HTU21D;58487;53.474;49.470;2023-04-07T12:45:42;15.41;56.12
70867;HTU21D;58487;53.474;49.470;2023-04-07T12:48:08;15.61;55.68
70867;HTU21D;58487;53.474;49.470;2023-04-07T12:50:35;15.99;54.23
70867;HTU21D;58487;53.474;49.470;2023-04-07T12:53:02;15.59;55.35
70867;HTU21D;58487;53.474;49.470;2023-04-07T12:55:31;14.68;56.92
70867;HTU21D;58487;53.474;49.470;2023-04-07T12:57:59;14.24;56.92
70867;HTU21D;58487;53.474;49.470;2023-04-07T13:00:25;13.94;57.67
70867;HTU21D;58487;53.474;49.470;2023-04-07T13:02:51;14.96;55.45
70867;HTU21D;58487;53.474;49.470;2023-04-07T13:05:18;15.63;55.29
70867;HTU21D;58487;53.474;49.470;2023-04-07T13:07:44;15.36;55.23
70867;HTU21D;58487;53.474;49.470;2023-04-07T13:10:10;15.58;54.18
70867;HTU21D;58487;53.474;49.470;2023-04-07T13:12:36;16.10;53.59
70867;HTU21D;58487;53.474;49.470;2023-04-07T13:15:05;15.86;54.61
70867;HTU21D;58487;53.474;49.470;2023-04-07T13:17:31;16.37;54.18
70867;HTU21D;58487;53.474;49.470;2023-04-07T13:19:57;15.91;54.94
70867;HTU21D;58487;53.474;49.470;2023-04-07T13:22:23;16.58;53.74
70867;HTU21D;58487;53.474;49.470;2023-04-07T13:24:51;16.74;52.53
70867;HTU21D;58487;53.474;49.470;2023-04-07T13:27:17;16.74;52.49
70867;HTU21D;58487;53.474;49.470;2023-04-07T13:29:43;17.05;52.79
70867;HTU21D;58487;53.474;49.470;2023-04-07T13:32:10;16.29;53.56
70867;HTU21D;58487;53.474;49.470;2023-04-07T13:34:40;15.91;54.89
70867;HTU21D;58487;53.474;49.470;2023-04-07T13:37:06;15.24;55.63
70867;HTU21D;58487;53.474;49.470;2023-04-07T13:39:32;14.58;56.55
70867;HTU21D;58487;53.474;49.470;2023-04-07T13:41:58;14.25;56.42
70867;HTU21D;58487;53.474;49.470;2023-04-07T13:44:25;13.97;57.17
70867;HTU21D;58487;53.474;49.470;2023-04-07T13:46:52;13.99;57.13
70867;HTU21D;58487;53.474;49.470;2023-04-07T13:49:19;13.84;57.58
70867;HTU21D;58487;53.474;49.470;2023-04-07T13:51:45;13.59;57.12
70867;HTU21D;58487;53.474;49.470;2023-04-07T13:54:11;13.35;58.09
70867;HTU21D;58487;53.474;49.470;2023-04-07T13:56:38;13.26;59.28
70867;HTU21D;58487;53.474;49.470;2023-04-07T13:59:06;13.22;59.58
70867;HTU21D;58487;53.474;49.470;2023-04-07T14:01:33;13.10;59.51
70867;HTU21D;58487;53.474;49.470;2023-04-07T14:04:05;13.24;59.18
70867;HTU21D;58487;53.474;49.470;2023-04-07T14:06:32;13.38;59.75
70867;HTU21D;58487;53.474;49.470;2023-04-07T14:08:58;13.34;59.18
70867;HTU21D;58487;53.474;49.470;2023-04-07T14:11:24;13.11;60.22
70867;HTU21D;58487;53.474;49.470;2023-04-07T14:13:51;13.29;59.65
70867;HTU21D;58487;53.474;49.470;2023-04-07T14:16:17;13.56;58.82
70867;HTU21D;58487;53.474;49.470;2023-04-07T14:18:43;13.49;58.86
70867;HTU21D;58487;53.474;49.470;2023-04-07T14:21:09;13.37;59.22
70867;HTU21D;58487;53.474;49.470;2023-04-07T14:23:36;13.66;58.93
70867;HTU21D;58487;53.474;49.470;2023-04-07T14:26:02;13.30;59.68
70867;HTU21D;58487;53.474;49.470;2023-04-07T14:28:28;13.02;60.80
70867;HTU21D;58487;53.474;49.470;2023-04-07T14:30:54;12.61;62.43
70867;HTU21D;58487;53.474;49.470;2023-04-07T14:33:20;12.31;62.72
70867;HTU21D;58487;53.474;49.470;2023-04-07T14:35:47;12.29;62.69
70867;HTU21D;58487;53.474;49.470;2023-04-07T14:38:13;12.74;61.99
70867;HTU21D;58487;53.474;49.470;2023-04-07T14:40:40;12.60;62.63
70867;HTU21D;58487;53.474;49.470;2023-04-07T14:43:06;12.31;63.27
70867;HTU21D;58487;53.474;49.470;2023-04-07T14:45:33;11.89;64.29
70867;HTU21D;58487;53.474;49.470;2023-04-07T14:48:00;11.69;63.70
70867;HTU21D;58487;53.474;49.470;2023-04-07T14:50:27;11.25;66.02
70867;HTU21D;58487;53.474;49.470;2023-04-07T14:52:52;11.13;67.05
70867;HTU21D;58487;53.474;49.470;2023-04-07T14:55:19;10.85;68.23
70867;HTU21D;58487;53.474;49.470;2023-04-07T14:57:45;10.64;69.23
70867;HTU21D;58487;53.474;49.470;2023-04-07T15:00:11;10.52;69.23
70867;HTU21D;58487;53.474;49.470;2023-04-07T15:02:38;10.54;70.83
70867;HTU21D;58487;53.474;49.470;2023-04-07T15:05:07;10.39;70.89
70867;HTU21D;58487;53.474;49.470;2023-04-07T15:07:34;10.29;70.77
70867;HTU21D;58487;53.474;49.470;2023-04-07T15:10:00;10.14;71.39
70867;HTU21D;58487;53.474;49.470;2023-04-07T15:12:26;10.13;70.00
70867;HTU21D;58487;53.474;49.470;2023-04-07T15:14:54;10.13;70.55
70867;HTU21D;58487;53.474;49.470;2023-04-07T15:17:26;9.94;71.66
70867;HTU21D;58487;53.474;49.470;2023-04-07T15:19:52;9.79;72.51
70867;HTU21D;58487;53.474;49.470;2023-04-07T15:22:18;9.82;71.23
70867;HTU21D;58487;53.474;49.470;2023-04-07T15:24:44;9.67;72.30
70867;HTU21D;58487;53.474;49.470;2023-04-07T15:27:10;9.60;72.11
70867;HTU21D;58487;53.474;49.470;2023-04-07T15:29:36;9.53;71.81
70867;HTU21D;58487;53.474;49.470;2023-04-07T15:32:03;9.49;74.23